Time;durP1;ratioP1;P1;durP2;ratioP2;P2;SDS_P1;SDS_P2;PMS_P1;PMS_P2;Temp;Humidity;BMP_temperature;BMP_pressure;BME280_temperature;BME280_humidity;BME280_pressure;Samples;Min_cycle;Max_cycle;Signal;HPM_P1;HPM_P2
2022/04/04 00:01:52;;;;;;;9.83;8.97;;;-2.00;99.90;;;-1.49;89.92;98312.22;5207932;28;20236;-80
2022/04/04 00:04:25;;;;;;;11.43;10.20;;;-2.00;99.90;;;-1.58;89.59;98309.59;5208057;28;20249;-80
2022/04/04 00:06:59;;;;;;;11.43;10.43;;;-2.10;99.90;;;-1.55;89.84;98316.56;5207244;28;20225;-78
2022/04/04 00:09:33;;;;;;;10.03;9.03;;;-2.10;99.90;;;-1.60;89.49;98308.56;5209377;28;20232;-79
2022/04/04 00:12:09;;;;;;;9.93;9.03;;;-2.10;99.90;;;-1.54;89.18;98308.34;5207808;28;20206;-79
2022/04/04 00:14:42;;;;;;;10.03;9.13;;;-2.00;99.90;;;-1.64;89.73;98306.44;5206674;28;20228;-80
2022/04/04 00:17:15;;;;;;;10.53;9.53;;;-2.20;99.90;;;-1.60;88.34;98313.59;5207720;28;20210;-79
2022/04/04 00:19:48;;;;;;;10.07;9.17;;;-2.20;99.90;;;-1.61;88.17;98306.78;5206786;28;20689;-79
2022/04/04 00:22:21;;;;;;;10.80;9.60;;;-2.20;99.90;;;-1.57;89.19;98310.53;5206987;28;20266;-79
2022/04/04 00:24:55;;;;;;;10.93;9.77;;;-2.10;99.90;;;-1.67;91.11;98312.72;5206622;28;20203;-80
2022/04/04 00:27:29;;;;;;;10.27;9.27;;;-2.10;99.90;;;-1.68;91.76;98310.94;5207365;28;20265;-80
2022/04/04 00:30:04;;;;;;;10.40;9.40;;;-2.20;99.90;;;-1.65;90.88;98308.78;5207884;28;20271;-79
2022/04/04 00:32:37;;;;;;;10.43;9.33;;;-2.10;99.90;;;-1.66;90.37;98307.91;5207179;28;20221;-78
2022/04/04 00:35:10;;;;;;;10.80;9.80;;;-2.10;99.90;;;-1.66;92.41;98295.38;5203454;28;20201;-79
2022/04/04 00:37:43;;;;;;;10.23;9.23;;;-2.10;99.90;;;-1.65;91.21;98299.66;5201423;28;20198;-78
2022/04/04 00:40:16;;;;;;;10.33;9.43;;;-2.10;99.90;;;-1.78;90.72;98295.63;5205758;28;20229;-77
2022/04/04 00:42:51;;;;;;;9.83;8.83;;;-2.20;99.90;;;-1.73;90.34;98300.41;5206995;28;20221;-79
2022/04/04 00:45:24;;;;;;;10.30;9.30;;;-2.30;99.90;;;-1.73;91.20;98304.53;5206465;28;20207;-79
2022/04/04 00:47:57;;;;;;;10.33;9.40;;;-2.20;99.90;;;-1.75;90.88;98305.97;5211080;28;20252;-79
2022/04/04 00:50:30;;;;;;;10.17;9.27;;;-2.20;99.90;;;-1.76;91.15;98304.19;5206661;28;20276;-79
2022/04/04 00:53:03;;;;;;;10.57;9.63;;;-2.30;99.90;;;-1.81;90.98;98297.03;5206253;28;20260;-80
2022/04/04 00:55:37;;;;;;;10.70;9.70;;;-2.30;99.90;;;-1.77;91.28;98294.88;5207973;28;20248;-80
2022/04/04 00:58:15;;;;;;;10.57;9.57;;;-2.20;99.90;;;-1.77;90.97;98297.38;5209072;28;20214;-79
2022/04/04 01:00:49;;;;;;;10.77;9.67;;;-2.30;99.90;;;-1.76;90.58;98299.19;5202368;28;20229;-79
2022/04/04 01:03:22;;;;;;;10.47;8.83;;;-2.30;99.90;;;-1.70;89.96;98297.34;5207065;28;20224;-79
2022/04/04 01:05:58;;;;;;;9.77;8.80;;;-2.30;99.90;;;-1.76;90.45;98296.69;5207957;28;20202;-79
2022/04/04 01:08:32;;;;;;;11.90;9.83;;;-2.30;99.90;;;-1.83;91.21;98298.50;5208765;28;20633;-80
2022/04/04 01:11:06;;;;;;;10.13;9.17;;;-2.30;99.90;;;-1.84;91.23;98299.22;5208673;28;20673;-79
2022/04/04 01:13:46;;;;;;;10.17;9.17;;;-2.30;99.90;;;-1.85;91.37;98294.03;5208547;28;20245;-80
2022/04/04 01:16:19;;;;;;;10.57;9.57;;;-2.40;99.90;;;-1.87;90.88;98290.47;5210407;28;20213;-78
2022/04/04 01:18:52;;;;;;;10.83;9.73;;;-2.40;99.90;;;-1.88;91.74;98292.09;5210966;28;20209;-81
2022/04/04 01:21:25;;;;;;;9.90;8.90;;;-2.30;99.90;;;-1.91;91.80;98293.38;5212860;28;20198;-79
2022/04/04 01:24:02;;;;;;;10.43;9.53;;;-2.40;99.90;;;-1.92;90.99;98284.94;5211614;28;20304;-80
2022/04/04 01:26:37;;;;;;;9.63;8.67;;;-2.40;99.90;;;-1.90;90.09;98290.13;5212958;28;20236;-81
2022/04/04 01:29:10;;;;;;;10.07;9.17;;;-2.40;99.90;;;-1.92;90.57;98289.94;5212088;28;20296;-81
2022/04/04 01:31:44;;;;;;;10.00;9.10;;;-2.40;99.90;;;-1.91;90.45;98289.25;5211548;28;20281;-79
2022/04/04 01:34:19;;;;;;;11.17;10.07;;;-2.40;99.90;;;-1.94;90.15;98288.03;5213056;28;20221;-80
2022/04/04 01:36:53;;;;;;;10.60;9.60;;;-2.40;99.90;;;-1.95;91.00;98284.59;5212026;28;20206;-80
2022/04/04 01:39:26;;;;;;;9.90;9.00;;;-2.50;99.90;;;-1.97;91.31;98278.56;5215658;28;20197;-79
2022/04/04 01:42:01;;;;;;;9.63;8.83;;;-2.50;99.90;;;-1.97;91.15;98282.69;5215379;28;20205;-80
2022/04/04 01:44:34;;;;;;;9.47;8.67;;;-2.50;99.90;;;-1.98;89.91;98271.75;5212910;28;20217;-80
2022/04/04 01:47:07;;;;;;;9.20;8.23;;;-2.60;99.90;;;-2.04;90.73;98273.56;5213590;28;20198;-79
2022/04/04 01:49:40;;;;;;;9.93;8.93;;;-2.60;99.90;;;-2.02;89.97;98274.63;5212709;28;20233;-81
2022/04/04 01:52:13;;;;;;;10.67;9.77;;;-2.60;99.90;;;-2.02;89.88;98271.25;5211186;28;20190;-78
2022/04/04 01:54:47;;;;;;;9.97;9.07;;;-2.60;99.90;;;-2.02;90.64;98268.75;5211730;28;20221;-78
2022/04/04 01:57:21;;;;;;;9.67;8.77;;;-2.60;99.90;;;-2.08;89.57;98268.94;5208520;28;20267;-78
2022/04/04 01:59:54;;;;;;;10.00;9.10;;;-2.60;99.90;;;-2.14;90.86;98270.78;5214265;28;20256;-79
2022/04/04 02:02:27;;;;;;;10.17;9.27;;;-2.70;99.90;;;-2.15;90.33;98273.97;5211288;28;20197;-81
2022/04/04 02:05:01;;;;;;;9.73;8.83;;;-2.70;99.90;;;-2.14;91.10;98269.16;5209760;28;20234;-80
2022/04/04 02:07:34;;;;;;;10.37;9.13;;;-2.60;99.90;;;-2.18;89.52;98272.03;5211516;28;20225;-79
2022/04/04 02:10:08;;;;;;;9.93;9.03;;;-2.70;99.90;;;-2.27;90.15;98271.00;5207308;28;20260;-79
2022/04/04 02:12:43;;;;;;;9.73;8.83;;;-2.70;99.90;;;-2.29;89.77;98262.41;5206110;28;20232;-79
2022/04/04 02:15:16;;;;;;;10.03;9.23;;;-2.80;99.90;;;-2.35;89.30;98267.63;5205297;28;20273;-79
2022/04/04 02:17:50;;;;;;;10.37;9.53;;;-2.80;99.90;;;-2.37;90.95;98264.06;5209466;28;20264;-79
2022/04/04 02:20:23;;;;;;;10.27;9.37;;;-2.80;99.90;;;-2.31;89.38;98258.88;5208125;28;20206;-79
2022/04/04 02:22:57;;;;;;;10.67;9.67;;;-2.90;99.90;;;-2.39;90.04;98254.59;5212402;28;20784;-79
2022/04/04 02:25:30;;;;;;;10.33;9.23;;;-2.90;99.90;;;-2.44;89.88;98255.69;5207174;28;20202;-79
2022/04/04 02:28:05;;;;;;;9.53;8.63;;;-2.90;99.90;;;-2.42;89.68;98254.28;5210927;28;20328;-79
2022/04/04 02:30:38;;;;;;;10.07;9.07;;;-2.90;99.90;;;-2.40;88.80;98251.22;5205887;28;20223;-78
2022/04/04 02:33:13;;;;;;;10.37;9.43;;;-2.90;99.90;;;-2.40;89.79;98243.72;5211532;28;20325;-79
2022/04/04 02:35:50;;;;;;;10.00;8.83;;;-3.00;99.90;;;-2.45;88.62;98248.91;5213352;28;20660;-79
2022/04/04 02:38:26;;;;;;;10.97;9.30;;;-3.10;99.90;;;-2.51;89.39;98244.13;5211495;28;20205;-79
2022/04/04 02:40:59;;;;;;;9.77;8.87;;;-3.00;99.90;;;-2.59;89.85;98235.72;5208942;28;20746;-79
2022/04/04 02:43:34;;;;;;;9.87;8.93;;;-3.00;99.90;;;-2.67;89.60;98245.59;5210142;28;20596;-79
2022/04/04 02:46:08;;;;;;;10.13;9.17;;;-3.10;99.90;;;-2.68;89.93;98236.31;5205109;28;20218;-80
2022/04/04 02:48:42;;;;;;;10.27;9.37;;;-3.10;99.90;;;-2.65;90.88;98239.16;5212821;28;20557;-79
2022/04/04 02:51:15;;;;;;;10.67;9.70;;;-3.00;99.90;;;-2.63;90.45;98233.63;5209104;28;20245;-79
2022/04/04 02:53:48;;;;;;;10.40;9.40;;;-3.10;99.90;;;-2.57;91.60;98240.94;5211907;28;20650;-80
2022/04/04 02:56:30;;;;;;;10.47;9.50;;;-3.00;99.90;;;-2.45;91.45;98236.41;5203961;28;20274;-79
2022/04/04 02:59:05;;;;;;;11.07;10.07;;;-3.00;99.90;;;-1.98;88.60;98231.66;5208019;28;20490;-79
2022/04/04 03:01:38;;;;;;;11.40;10.23;;;-2.80;99.90;;;-1.85;87.97;98228.94;5204847;28;20228;-79
2022/04/04 03:04:11;;;;;;;10.23;9.23;;;-2.70;99.90;;;-1.92;86.45;98234.84;5205988;28;20229;-79
2022/04/04 03:06:45;;;;;;;9.53;8.53;;;-2.70;99.90;;;-2.04;86.44;98233.50;5206224;28;20266;-79
2022/04/04 03:09:18;;;;;;;10.60;9.60;;;-2.80;99.90;;;-2.11;87.01;98238.56;5207712;28;20736;-78
2022/04/04 03:11:51;;;;;;;10.63;9.63;;;-2.80;99.90;;;-2.28;86.68;98232.56;5207943;28;20481;-79
2022/04/04 03:14:25;;;;;;;10.73;9.63;;;-2.90;99.90;;;-2.31;88.18;98227.22;5207379;28;20221;-78
2022/04/04 03:16:59;;;;;;;9.67;8.77;;;-3.00;99.90;;;-2.46;87.79;98229.59;5204963;28;20656;-79
2022/04/04 03:19:32;;;;;;;10.07;9.17;;;-3.10;99.90;;;-2.57;87.39;98233.41;5209481;28;20194;-80
2022/04/04 03:22:05;;;;;;;10.00;9.10;;;-3.20;99.90;;;-2.66;86.49;98232.34;5209422;28;20262;-79
2022/04/04 03:24:39;;;;;;;10.40;9.33;;;-3.20;99.90;;;-2.69;87.61;98234.50;5210096;28;20250;-80
2022/04/04 03:27:13;;;;;;;9.90;9.00;;;-3.20;99.90;;;-2.77;87.99;98238.66;5208679;28;20244;-78
2022/04/04 03:29:47;;;;;;;10.60;9.70;;;-3.30;99.90;;;-2.80;87.48;98240.81;5207150;28;20245;-79
2022/04/04 03:32:21;;;;;;;10.33;9.33;;;-3.40;99.90;;;-2.81;88.36;98236.53;5208890;28;20221;-79
2022/04/04 03:34:54;;;;;;;12.13;9.40;;;-3.30;99.90;;;-2.84;87.93;98233.66;5208047;28;20202;-79
2022/04/04 03:37:27;;;;;;;10.20;9.30;;;-3.40;99.90;;;-2.91;87.25;98238.72;5207598;28;20252;-79
2022/04/04 03:40:01;;;;;;;10.70;9.73;;;-3.40;99.90;;;-2.89;88.40;98243.16;5207302;28;20205;-80
2022/04/04 03:42:36;;;;;;;11.33;10.23;;;-3.40;99.90;;;-2.86;87.92;98236.00;5208799;28;20222;-80
2022/04/04 03:45:13;;;;;;;9.97;8.97;;;-3.40;99.90;;;-2.88;89.62;98229.06;5210592;28;20288;-79
2022/04/04 03:47:48;;;;;;;11.23;10.10;;;-3.30;99.90;;;-2.89;89.41;98238.16;5208503;28;20213;-78
2022/04/04 03:50:22;;;;;;;11.13;10.13;;;-3.30;99.90;;;-2.89;90.22;98232.25;5207918;28;20193;-77
2022/04/04 03:52:57;;;;;;;11.47;10.40;;;-3.30;99.90;;;-2.91;90.49;98229.59;5206870;28;20290;-78
2022/04/04 03:55:33;;;;;;;10.47;9.47;;;-3.20;99.90;;;-2.98;89.40;98222.09;5210137;28;20644;-80
2022/04/04 03:58:09;;;;;;;11.33;10.10;;;-3.40;99.90;;;-2.96;89.45;98224.06;5208735;28;20211;-80
2022/04/04 04:00:43;;;;;;;11.23;10.13;;;-3.40;99.90;;;-2.93;89.20;98225.13;5208177;28;20374;-79
2022/04/04 04:03:17;;;;;;;11.07;10.07;;;-3.40;99.90;;;-2.92;90.13;98216.91;5210002;28;20221;-80
2022/04/04 04:06:11;;;;;;;12.57;10.20;;;-3.40;99.90;;;-3.05;89.28;98222.13;5212207;28;20250;-80
2022/04/04 04:08:46;;;;;;;12.77;10.80;;;-3.40;99.90;;;-3.08;89.52;98227.66;5206270;28;20240;-81
2022/04/04 04:11:21;;;;;;;18.67;13.27;;;-3.50;99.90;;;-3.10;88.98;98230.69;5207982;28;20304;-80
2022/04/04 04:13:54;;;;;;;17.87;14.13;;;-3.50;99.90;;;-3.06;89.27;98230.31;5209012;28;20214;-80
2022/04/04 04:16:29;;;;;;;21.27;15.30;;;-3.50;99.90;;;-3.09;89.58;98233.38;5207861;28;20290;-80
2022/04/04 04:19:02;;;;;;;16.27;13.27;;;-3.60;99.90;;;-3.02;89.12;98225.84;5206240;28;20201;-82
2022/04/04 04:21:35;;;;;;;11.93;10.83;;;-3.60;99.90;;;-3.04;88.86;98222.28;5208057;28;20229;-81
2022/04/04 04:24:08;;;;;;;11.27;9.67;;;-3.50;99.90;;;-3.13;88.76;98226.25;5208784;28;20797;-79
2022/04/04 04:26:42;;;;;;;11.30;10.30;;;-3.50;99.90;;;-3.09;88.28;98224.97;5210069;28;20205;-80
2022/04/04 04:29:15;;;;;;;12.40;11.20;;;-3.70;99.90;;;-3.20;88.08;98222.16;5209010;28;20210;-82
2022/04/04 04:31:51;;;;;;;12.13;11.03;;;-3.70;99.90;;;-3.19;89.06;98221.41;5209055;28;20308;-82
2022/04/04 04:34:24;;;;;;;11.93;10.83;;;-3.60;99.90;;;-3.10;89.91;98213.19;5207036;28;20253;-82
2022/04/04 04:36:58;;;;;;;11.83;10.63;;;-3.50;99.90;;;-3.10;90.01;98221.59;5209504;28;20248;-83
2022/04/04 04:39:31;;;;;;;12.13;10.83;;;-3.50;99.90;;;-3.13;90.23;98220.34;5205425;28;20197;-82
2022/04/04 04:42:05;;;;;;;12.50;11.23;;;-3.50;99.90;;;-3.09;90.24;98220.88;5205819;28;20198;-84
2022/04/04 04:44:38;;;;;;;13.00;11.73;;;-3.50;99.90;;;-3.04;91.13;98221.41;5208242;28;20244;-83
2022/04/04 04:47:14;;;;;;;12.63;11.33;;;-3.40;99.90;;;-3.02;90.17;98219.97;5205969;28;20209;-82
2022/04/04 04:49:48;;;;;;;12.27;11.13;;;-3.40;99.90;;;-2.97;90.29;98211.41;5210637;28;20220;-82
2022/04/04 04:52:21;;;;;;;13.80;12.40;;;-3.40;99.90;;;-2.95;89.25;98209.94;5206815;28;20243;-83
2022/04/04 04:54:54;;;;;;;19.30;15.73;;;-3.40;99.90;;;-2.93;89.28;98215.13;5213780;28;20244;-84
2022/04/04 04:57:28;;;;;;;16.77;15.07;;;-3.40;99.90;;;-2.93;88.75;98213.50;5209516;28;20236;-82
2022/04/04 05:00:03;;;;;;;16.73;14.97;;;-3.40;99.90;;;-2.92;88.98;98207.78;5208984;28;20296;-82
2022/04/04 05:02:39;;;;;;;15.07;13.53;;;-3.40;99.90;;;-2.95;89.54;98208.34;5210827;28;20232;-86
2022/04/04 05:05:12;;;;;;;14.80;13.50;;;-3.40;99.90;;;-2.93;89.31;98216.00;5209947;28;20228;-82
2022/04/04 05:07:45;;;;;;;13.37;12.27;;;-3.40;99.90;;;-2.87;88.44;98201.69;5208454;28;20236;-84
2022/04/04 05:10:18;;;;;;;13.10;11.80;;;-3.40;99.90;;;-2.85;88.23;98210.28;5209205;28;20591;-85
2022/04/04 05:12:51;;;;;;;13.17;11.77;;;-3.30;99.90;;;-2.82;88.64;98208.13;5208270;28;20226;-84
2022/04/04 05:15:25;;;;;;;12.20;11.10;;;-3.30;99.90;;;-2.76;87.89;98201.31;5204933;28;20209;-85
2022/04/04 05:18:08;;;;;;;12.50;11.23;;;-3.30;99.90;;;-2.82;87.19;98200.63;5221038;28;20205;-87
2022/04/04 05:20:41;;;;;;;13.70;12.37;;;-3.30;99.90;;;-2.72;88.13;98197.53;5229537;28;20229;-87
2022/04/04 05:23:15;;;;;;;12.93;11.80;;;-3.20;99.90;;;-2.70;88.37;98197.72;5216396;28;20612;-85
2022/04/04 05:25:49;;;;;;;12.97;11.77;;;-3.20;99.90;;;-2.69;88.23;98200.38;5209277;28;20206;-85
2022/04/04 05:28:32;;;;;;;13.07;11.77;;;-3.20;99.90;;;-2.78;87.14;98202.75;5208984;28;20205;-85
2022/04/04 05:31:06;;;;;;;13.60;12.20;;;-3.20;99.90;;;-2.58;86.87;98201.59;5219232;28;20201;-84
2022/04/04 05:33:41;;;;;;;13.10;11.10;;;-3.10;99.90;;;-2.53;88.79;98203.00;5210691;28;20267;-84
2022/04/04 05:36:14;;;;;;;13.50;12.30;;;-3.00;99.90;;;-2.65;87.35;98202.53;5208248;28;20206;-83
2022/04/04 05:38:50;;;;;;;12.60;10.93;;;-3.10;99.90;;;-2.58;87.53;98196.59;5210746;28;20210;-84
2022/04/04 05:41:23;;;;;;;12.07;10.97;;;-3.20;99.90;;;-2.55;86.04;98199.44;5216260;28;20201;-85
2022/04/04 05:43:57;;;;;;;12.87;11.67;;;-3.20;99.90;;;-2.49;86.09;98212.63;5211835;28;20237;-82
2022/04/04 05:46:31;;;;;;;12.33;11.23;;;-3.10;99.90;;;-2.52;86.70;98199.78;5214905;28;20753;-83
2022/04/04 05:49:06;;;;;;;12.37;11.17;;;-3.10;99.90;;;-2.46;87.25;98213.00;5216499;28;20558;-83
2022/04/04 05:51:40;;;;;;;12.83;11.70;;;-3.10;99.90;;;-2.38;87.27;98197.22;5213244;28;20715;-84
2022/04/04 05:54:33;;;;;;;14.30;12.90;;;-3.00;99.90;;;-2.16;86.83;98205.50;5214142;28;20584;-85
2022/04/04 05:57:27;;;;;;;13.67;12.47;;;-2.80;99.90;;;-1.98;84.90;98200.75;5212644;28;20209;-86
2022/04/04 06:00:01;;;;;;;12.27;11.07;;;-2.70;99.90;;;-1.65;84.45;98198.53;5213886;28;20206;-84
2022/04/04 06:02:38;;;;;;;12.90;11.60;;;-2.40;99.90;;;-1.09;83.45;98201.22;5217561;28;20229;-84
2022/04/04 06:05:14;;;;;;;15.20;13.80;;;-2.10;99.90;;;-0.49;82.06;98193.41;5218948;28;20364;-85
2022/04/04 06:08:05;;;;;;;12.20;10.93;;;-1.60;99.90;;;-0.11;80.54;98190.56;5221172;28;20227;-83
2022/04/04 06:10:38;;;;;;;12.20;11.00;;;-1.30;99.90;;;0.22;78.05;98190.59;5221422;28;20182;-83
2022/04/04 06:13:39;;;;;;;13.40;12.20;;;-0.90;99.90;;;0.55;77.40;98197.28;5226640;28;20234;-82
2022/04/04 06:20:28;;;;;;;14.70;13.20;;;-0.40;99.90;;;0.80;76.63;98191.44;5193155;28;20466;-83
2022/04/04 06:23:22;;;;;;;15.40;13.33;;;-0.20;99.90;;;0.82;75.37;98186.56;5210136;28;20253;-84
2022/04/04 06:25:56;;;;;;;13.67;12.37;;;-0.20;99.90;;;0.85;75.18;98189.38;5223945;28;20468;-84
2022/04/04 06:28:31;;;;;;;14.00;12.70;;;-0.20;99.90;;;0.97;75.05;98193.09;5219582;28;20248;-83
2022/04/04 06:31:04;;;;;;;13.83;12.20;;;-0.10;99.90;;;1.42;73.41;98187.41;5208352;28;20235;-82
2022/04/04 06:33:39;;;;;;;13.83;12.43;;;0.10;99.90;;;1.89;71.69;98180.97;5210511;22;20225;-51
2022/04/04 06:36:14;;;;;;;13.50;12.40;;;0.30;99.90;;;2.38;69.73;98183.13;5202686;28;20208;-54
2022/04/04 06:38:47;;;;;;;16.23;14.83;;;0.70;99.90;;;2.56;70.20;98177.25;5202692;28;20226;-57
2022/04/04 06:41:20;;;;;;;13.87;12.47;;;0.90;99.90;;;3.11;68.04;98174.72;5201043;28;20644;-60
2022/04/04 06:43:53;;;;;;;15.17;13.67;;;1.30;99.90;;;3.34;66.32;98175.91;5200947;28;20224;-57
2022/04/04 06:46:26;;;;;;;14.63;13.23;;;1.70;99.90;;;3.62;65.94;98171.69;5203519;28;20712;-56
2022/04/04 06:49:00;;;;;;;13.73;12.37;;;1.80;99.90;;;3.75;65.40;98169.50;5203857;28;20589;-56
2022/04/04 06:51:35;;;;;;;13.17;11.77;;;2.00;99.90;;;4.06;63.90;98169.63;5202331;28;20244;-59
2022/04/04 06:54:09;;;;;;;13.23;12.03;;;2.40;99.90;;;4.24;63.02;98161.13;5200702;28;20321;-60
2022/04/04 06:56:42;;;;;;;13.57;12.47;;;2.50;99.90;;;4.67;61.26;98161.34;5202780;28;20206;-61
2022/04/04 06:59:16;;;;;;;12.33;11.23;;;2.70;99.90;;;4.87;59.83;98157.97;5198656;28;20292;-54
2022/04/04 07:01:50;;;;;;;12.93;11.83;;;2.90;99.90;;;5.21;59.06;98156.59;5201773;28;20278;-53
2022/04/04 07:04:23;;;;;;;14.50;13.10;;;3.20;99.90;;;5.64;57.29;98149.94;5203887;28;20214;-54
2022/04/04 07:06:57;;;;;;;13.60;12.50;;;3.40;99.90;;;5.90;57.05;98153.69;5205572;28;20284;-52
2022/04/04 07:09:31;;;;;;;13.07;11.87;;;3.60;99.90;;;6.11;55.13;98152.88;5203595;28;20275;-51
2022/04/04 07:12:05;;;;;;;14.07;12.67;;;3.80;99.90;;;6.34;54.91;98149.59;5202969;28;20224;-52
2022/04/04 07:14:38;;;;;;;13.97;12.73;;;3.90;99.90;;;6.92;54.10;98153.16;5203339;28;20784;-59
2022/04/04 07:17:11;;;;;;;13.77;12.47;;;4.30;99.90;;;7.16;52.19;98149.94;5202324;28;20252;-53
2022/04/04 07:19:45;;;;;;;26.87;24.73;;;4.30;99.90;;;7.53;51.27;98147.56;5202594;28;20201;-54
2022/04/04 07:22:19;;;;;;;13.13;11.77;;;4.50;99.90;;;7.77;49.31;98150.13;5201730;28;20260;-55
2022/04/04 07:24:52;;;;;;;13.10;12.00;;;4.70;99.40;;;7.20;50.92;98139.22;5203273;28;20217;-52
2022/04/04 07:27:26;;;;;;;12.60;11.43;;;4.80;99.40;;;6.76;50.35;98144.38;5203139;28;20646;-54
2022/04/04 07:29:59;;;;;;;12.33;11.27;;;4.70;98.40;;;6.32;53.50;98144.41;5204398;28;20202;-52
2022/04/04 07:32:35;;;;;;;12.90;11.80;;;4.60;99.70;;;6.35;54.77;98137.78;5201029;28;20553;-54
2022/04/04 07:35:11;;;;;;;12.43;11.30;;;4.60;99.80;;;6.64;52.53;98135.84;5202151;28;20279;-53
2022/04/04 07:37:48;;;;;;;12.13;11.03;;;4.90;98.50;;;6.64;52.98;98135.84;5197759;28;20228;-52
2022/04/04 07:40:22;;;;;;;12.40;11.30;;;5.10;98.40;;;6.05;55.65;98140.56;5201984;28;20256;-55
2022/04/04 07:42:55;;;;;;;13.33;12.03;;;4.80;99.30;;;6.18;54.82;98137.38;5199524;28;20240;-57
2022/04/04 07:45:30;;;;;;;12.73;11.50;;;4.80;98.80;;;6.07;55.67;98140.72;5198896;28;20299;-51
2022/04/04 07:48:04;;;;;;;13.60;12.30;;;4.80;99.40;;;6.49;54.83;98132.09;5202161;28;20201;-52
2022/04/04 07:50:38;;;;;;;12.57;10.70;;;5.10;98.60;;;6.65;54.28;98131.66;5205288;28;20660;-57
2022/04/04 07:53:13;;;;;;;12.57;11.37;;;5.40;98.50;;;6.98;53.84;98128.22;5198724;28;20527;-52
2022/04/04 07:55:47;;;;;;;12.63;11.43;;;5.70;97.90;;;7.19;52.29;98123.88;5200725;28;20576;-53
2022/04/04 07:58:20;;;;;;;12.17;11.00;;;5.90;97.30;;;7.60;52.29;98120.91;5201063;28;20289;-60
2022/04/04 08:00:54;;;;;;;12.10;10.83;;;6.30;96.60;;;7.58;50.27;98119.91;5198973;28;20190;-53
2022/04/04 08:03:27;;;;;;;11.60;10.70;;;6.40;95.40;;;7.72;50.94;98118.38;5201525;28;20289;-52
2022/04/04 08:06:01;;;;;;;12.13;10.87;;;6.60;95.50;;;7.75;50.21;98123.69;5202520;28;20705;-55
2022/04/04 08:08:35;;;;;;;11.83;10.73;;;6.60;95.10;;;7.95;49.82;98107.31;5203340;28;20212;-52
2022/04/04 08:11:09;;;;;;;11.57;10.40;;;6.80;94.60;;;7.95;49.08;98108.19;5200223;28;20260;-56
2022/04/04 08:13:44;;;;;;;11.37;10.33;;;6.80;93.80;;;8.12;48.43;98104.28;5202371;28;20295;-52
2022/04/04 08:16:17;;;;;;;11.53;10.43;;;7.00;93.40;;;8.22;48.40;98103.28;5200321;28;20208;-52
2022/04/04 08:18:50;;;;;;;11.23;10.23;;;7.10;93.40;;;8.27;47.33;98099.38;5203340;28;20204;-53
2022/04/04 08:21:23;;;;;;;10.20;9.30;;;7.10;92.40;;;8.20;45.56;98108.25;5197487;28;20210;-53
2022/04/04 08:23:58;;;;;;;10.73;9.73;;;7.10;91.30;;;8.25;46.29;98103.50;5201365;28;20243;-52
2022/04/04 08:26:31;;;;;;;10.03;9.23;;;7.20;91.40;;;8.19;46.93;98096.31;5200481;28;20195;-51
2022/04/04 08:29:05;;;;;;;9.77;8.83;;;7.10;91.90;;;8.24;46.37;98094.06;5200948;28;20692;-54
2022/04/04 08:31:39;;;;;;;10.47;9.47;;;7.20;91.40;;;8.44;46.17;98085.28;5198871;28;20206;-52
2022/04/04 08:34:13;;;;;;;10.67;9.67;;;7.30;91.30;;;8.51;45.12;98088.38;5202614;28;20225;-54
2022/04/04 08:36:46;;;;;;;11.23;10.23;;;7.50;91.00;;;8.49;45.53;98095.03;5195681;28;20202;-53
2022/04/04 08:39:20;;;;;;;10.83;9.83;;;7.40;90.70;;;8.44;45.09;98086.22;5201328;28;20206;-56
2022/04/04 08:41:56;;;;;;;11.03;10.03;;;7.50;90.40;;;8.66;43.69;98078.34;5196046;28;20615;-54
2022/04/04 08:44:30;;;;;;;10.70;9.80;;;7.60;89.70;;;8.62;43.65;98071.28;5200111;28;20673;-56
2022/04/04 08:47:04;;;;;;;10.77;9.87;;;7.80;87.70;;;8.51;43.63;98068.00;5204502;28;20234;-53
2022/04/04 08:49:42;;;;;;;10.90;9.90;;;7.70;88.30;;;8.54;43.05;98065.66;5203865;28;20193;-55
2022/04/04 08:52:16;;;;;;;10.80;9.70;;;7.60;87.80;;;8.69;43.74;98063.25;5201738;28;20293;-52
2022/04/04 08:54:52;;;;;;;10.60;9.70;;;7.70;87.80;;;8.97;42.77;98055.78;5197287;28;20279;-52
2022/04/04 08:57:25;;;;;;;11.10;10.00;;;7.90;87.70;;;9.09;42.33;98054.84;5201626;28;20202;-55
2022/04/04 08:59:58;;;;;;;10.70;9.90;;;8.10;86.80;;;9.12;40.99;98060.13;5203983;28;20205;-58
2022/04/04 09:02:32;;;;;;;10.83;10.03;;;8.30;84.80;;;9.23;41.44;98052.41;5204567;28;20687;-57
2022/04/04 09:05:06;;;;;;;11.17;10.13;;;8.30;85.50;;;9.35;42.46;98051.44;5211693;28;20241;-55
2022/04/04 09:08:00;;;;;;;11.33;10.23;;;8.50;86.90;;;9.31;43.48;98047.81;5202645;28;20237;-56
2022/04/04 09:10:40;;;;;;;10.90;10.00;;;8.40;87.50;;;9.44;41.58;98046.91;5203166;28;20662;-54
2022/04/04 09:13:15;;;;;;;10.67;9.77;;;8.50;84.70;;;9.30;42.20;98040.03;5199219;28;20576;-55
2022/04/04 09:15:58;;;;;;;10.17;9.40;;;8.40;85.80;;;9.31;40.05;98040.16;5202906;28;20225;-54
2022/04/04 09:18:47;;;;;;;9.77;9.00;;;8.40;81.80;;;8.90;38.64;98030.69;5199004;28;20194;-57
2022/04/04 09:21:33;;;;;;;10.97;10.00;;;8.20;79.10;;;8.87;39.70;98034.69;5204668;28;20220;-56
2022/04/04 09:24:11;;;;;;;9.77;8.97;;;8.10;80.50;;;8.78;40.11;98024.75;5202649;28;20235;-56
2022/04/04 09:26:46;;;;;;;10.00;9.10;;;8.10;80.90;;;8.73;39.88;98021.06;5203233;28;20194;-53
2022/04/04 09:29:22;;;;;;;10.77;9.80;;;8.00;80.40;;;8.66;40.70;98017.19;5210009;28;20256;-54
2022/04/04 09:31:59;;;;;;;9.93;9.13;;;8.10;81.70;;;8.83;40.53;98013.22;5201291;28;20197;-52
2022/04/04 09:35:00;;;;;;;9.43;8.63;;;8.20;81.30;;;8.81;40.30;98007.13;5195288;28;20663;-55
2022/04/04 09:37:34;;;;;;;12.30;11.40;;;8.20;80.70;;;8.89;39.15;98005.09;5208085;28;20229;-52
2022/04/04 09:40:12;;;;;;;9.93;9.03;;;8.20;78.80;;;8.86;40.55;97989.59;5209200;28;20225;-52
2022/04/04 09:42:59;;;;;;;9.10;8.50;;;8.30;81.00;;;8.86;39.17;97990.47;5205291;28;20570;-53
2022/04/04 09:45:33;;;;;;;8.23;7.53;;;8.30;79.80;;;8.89;39.34;97990.69;5205579;28;20226;-56
2022/04/04 09:48:08;;;;;;;8.60;7.90;;;8.30;78.30;;;8.95;39.45;97985.09;5207533;28;20205;-53
2022/04/04 09:50:45;;;;;;;9.03;8.33;;;8.20;78.50;;;9.00;39.55;97987.16;5205408;28;20201;-52
2022/04/04 09:53:21;;;;;;;8.83;8.13;;;8.40;79.40;;;8.87;39.26;97974.44;5206753;28;20283;-57
2022/04/04 09:55:57;;;;;;;8.30;7.60;;;8.30;79.10;;;8.78;38.20;97968.69;5196977;28;20233;-53
2022/04/04 09:58:33;;;;;;;8.37;7.67;;;8.20;76.70;;;8.69;38.12;97957.91;5201374;28;20568;-54
2022/04/04 10:01:06;;;;;;;8.60;7.90;;;8.10;77.30;;;8.57;39.21;97961.41;5203377;28;20657;-55
2022/04/04 10:03:40;;;;;;;7.07;6.53;;;8.00;78.40;;;8.46;37.48;97967.47;5200476;28;20646;-58
2022/04/04 10:06:14;;;;;;;7.63;7.00;;;7.80;75.10;;;8.61;38.03;97961.63;5202870;28;20233;-57
2022/04/04 10:08:54;;;;;;;7.90;7.10;;;7.90;76.40;;;8.36;37.92;97949.78;5206092;28;20202;-60
2022/04/04 10:11:30;;;;;;;8.13;7.43;;;7.90;75.40;;;8.44;38.54;97948.66;5198943;28;20205;-59
2022/04/04 10:14:05;;;;;;;7.97;7.23;;;8.00;77.30;;;8.55;39.55;97955.31;5203099;28;20257;-58
2022/04/04 10:16:38;;;;;;;7.03;6.43;;;8.00;77.90;;;8.59;37.57;97947.91;5204677;28;20764;-55
2022/04/04 10:19:12;;;;;;;7.50;6.80;;;8.10;75.20;;;8.57;38.12;97946.13;5201130;28;20229;-59
2022/04/04 10:21:46;;;;;;;7.10;6.50;;;8.10;76.10;;;8.50;38.13;97933.78;5200434;28;20291;-59
2022/04/04 10:24:20;;;;;;;7.70;7.10;;;8.00;75.80;;;8.61;38.63;97931.03;5204156;28;20280;-60
2022/04/04 10:26:54;;;;;;;7.07;6.47;;;8.00;76.60;;;8.62;38.82;97930.28;5202349;28;20292;-57
2022/04/04 10:29:39;;;;;;;8.53;7.83;;;8.20;77.30;;;8.48;38.97;97912.41;5201673;28;20216;-59
2022/04/04 10:32:24;;;;;;;7.57;6.87;;;8.00;77.00;;;8.67;40.24;97919.59;5198915;28;20194;-59
2022/04/04 10:34:57;;;;;;;8.33;7.63;;;8.10;79.40;;;8.62;40.21;97915.00;5191991;28;20226;-58
2022/04/04 10:37:30;;;;;;;8.17;7.40;;;8.10;79.00;;;8.63;39.71;97904.00;5199775;28;20306;-58
2022/04/04 10:40:19;;;;;;;8.30;7.70;;;8.10;78.20;;;8.70;39.55;97895.97;5204945;28;20226;-56
2022/04/04 10:43:10;;;;;;;8.93;8.13;;;8.00;78.60;;;8.79;38.95;97897.47;5197786;28;20226;-58
2022/04/04 10:45:57;;;;;;;7.87;7.27;;;8.30;78.10;;;8.67;39.45;97895.78;5206631;28;20214;-60
2022/04/04 10:48:32;;;;;;;8.27;7.57;;;8.10;77.80;;;8.52;40.37;97894.00;5205871;28;20198;-60
2022/04/04 10:51:17;;;;;;;8.47;7.77;;;8.00;78.90;;;8.63;40.72;97896.38;5203326;28;20206;-59
2022/04/04 10:53:53;;;;;;;8.50;7.80;;;8.20;79.40;;;8.64;39.67;97871.00;5198179;28;20708;-60
2022/04/04 10:56:29;;;;;;;8.77;8.13;;;8.20;77.40;;;8.90;39.16;97872.66;5202872;28;20284;-59